createdAt,value
2023-05-20T00:01:03.808Z,55.24
2023-05-20T00:03:30.558Z,54.72
2023-05-20T00:05:57.375Z,55.35
2023-05-20T00:08:23.963Z,55.11
2023-05-20T00:10:50.995Z,55.55
2023-05-20T00:13:17.579Z,55.23
2023-05-20T00:15:44.258Z,56.21
2023-05-20T00:18:11.036Z,55.44
2023-05-20T00:20:37.840Z,56.95
2023-05-20T00:23:04.450Z,57.41
2023-05-20T00:25:32.671Z,57.07
2023-05-20T00:27:59.420Z,57.07
2023-05-20T00:30:26.636Z,57.10
2023-05-20T00:32:53.274Z,57.66
2023-05-20T00:35:20.052Z,57.51
2023-05-20T00:37:46.632Z,57.41
2023-05-20T00:40:15.776Z,57.48
2023-05-20T00:42:42.639Z,57.56
2023-05-20T00:45:09.592Z,57.69
2023-05-20T00:47:39.454Z,59.16
2023-05-20T00:50:07.648Z,57.89
2023-05-20T00:52:34.488Z,58.50
2023-05-20T00:55:01.269Z,58.90
2023-05-20T00:57:27.926Z,59.05
2023-05-20T00:59:54.630Z,58.85
2023-05-20T01:02:21.681Z,59.17
2023-05-20T01:04:48.679Z,59.21
2023-05-20T01:07:16.505Z,60.02
2023-05-20T01:09:43.405Z,58.68
2023-05-20T01:12:09.945Z,59.14
2023-05-20T01:14:38.053Z,58.64
2023-05-20T01:17:09.712Z,57.83
2023-05-20T01:19:45.975Z,57.75
2023-05-20T01:22:14.009Z,57.44
2023-05-20T01:24:48.521Z,58.33
2023-05-20T01:27:15.280Z,59.13
2023-05-20T01:29:42.633Z,58.40
2023-05-20T01:32:15.556Z,58.34
2023-05-20T01:34:42.702Z,57.53
2023-05-20T01:37:10.687Z,57.93
2023-05-20T01:39:41.697Z,57.42
2023-05-20T01:42:10.300Z,57.39
2023-05-20T01:44:37.422Z,57.91
2023-05-20T01:47:04.536Z,57.66
2023-05-20T01:49:31.364Z,57.24
2023-05-20T01:51:58.322Z,57.68
2023-05-20T01:54:25.062Z,59.12
2023-05-20T01:56:51.731Z,59.77
2023-05-20T02:02:00.213Z,59.85
2023-05-20T02:04:27.376Z,60.16
2023-05-20T02:06:54.094Z,60.20
2023-05-20T02:09:23.181Z,60.97
2023-05-20T02:11:52.146Z,60.18
2023-05-20T02:14:18.733Z,59.99
2023-05-20T02:16:46.513Z,59.73
2023-05-20T02:19:13.329Z,59.68
2023-05-20T02:21:41.989Z,60.07
2023-05-20T02:24:09.859Z,60.70
2023-05-20T02:26:36.601Z,61.19
2023-05-20T02:29:03.243Z,60.45
2023-05-20T02:31:29.964Z,61.02
2023-05-20T02:33:56.701Z,60.34
2023-05-20T02:36:23.399Z,60.42
2023-05-20T02:38:52.322Z,60.11
2023-05-20T02:41:18.959Z,60.44
2023-05-20T02:43:46.986Z,60.48
2023-05-20T02:46:13.679Z,60.89
2023-05-20T02:48:40.537Z,59.95
2023-05-20T02:51:07.305Z,60.03
2023-05-20T02:53:33.971Z,60.13
2023-05-20T02:56:01.628Z,60.39
2023-05-20T02:58:29.487Z,61.35
2023-05-20T03:00:57.799Z,60.52
2023-05-20T03:03:27.138Z,61.64
2023-05-20T03:05:53.977Z,61.31
2023-05-20T03:08:22.087Z,61.39
2023-05-20T03:10:49.118Z,61.57
2023-05-20T03:13:18.103Z,62.74
2023-05-20T03:15:45.705Z,62.01
2023-05-20T03:18:18.696Z,61.00
2023-05-20T03:20:46.365Z,61.99
2023-05-20T03:23:13.109Z,63.47
2023-05-20T03:25:41.406Z,62.77
2023-05-20T03:28:08.285Z,63.86
2023-05-20T03:30:37.051Z,64.14
2023-05-20T03:33:06.025Z,65.71
2023-05-20T03:35:35.338Z,65.61
2023-05-20T03:38:02.220Z,63.90
2023-05-20T03:40:29.698Z,63.88
2023-05-20T03:43:02.665Z,64.33
2023-05-20T03:45:29.980Z,64.45
2023-05-20T03:48:03.828Z,65.10
2023-05-20T03:50:32.954Z,64.52
2023-05-20T03:53:00.598Z,65.17
2023-05-20T03:55:30.021Z,63.43
2023-05-20T03:57:59.543Z,64.52
2023-05-20T04:00:26.475Z,63.38
2023-05-20T04:02:53.293Z,63.79
2023-05-20T04:05:21.287Z,61.98
2023-05-20T04:07:50.351Z,62.27
2023-05-20T04:10:19.503Z,62.91
2023-05-20T04:12:47.035Z,62.68
2023-05-20T04:15:14.796Z,63.92
2023-05-20T04:17:53.226Z,63.77
2023-05-20T04:20:20.135Z,64.33
2023-05-20T04:22:48.361Z,62.64
2023-05-20T04:25:15.230Z,64.40
2023-05-20T04:27:49.334Z,65.57
2023-05-20T04:30:20.642Z,64.04
2023-05-20T04:32:50.823Z,63.98
2023-05-20T04:35:17.974Z,62.92
2023-05-20T04:37:51.431Z,64.13
2023-05-20T04:40:19.171Z,64.93
2023-05-20T04:42:46.212Z,65.16
2023-05-20T04:45:13.727Z,64.21
2023-05-20T04:47:41.926Z,64.51
2023-05-20T04:50:12.306Z,63.66
2023-05-20T04:52:45.468Z,64.53
2023-05-20T04:55:12.440Z,62.50
2023-05-20T04:57:44.516Z,63.78
2023-05-20T05:00:12.703Z,63.16
2023-05-20T05:02:40.160Z,63.58
2023-05-20T05:05:07.304Z,61.79
2023-05-20T05:07:33.972Z,62.51
2023-05-20T05:10:01.291Z,63.55
2023-05-20T05:12:33.170Z,61.90
2023-05-20T05:14:59.993Z,61.40
2023-05-20T05:17:29.126Z,61.71
2023-05-20T05:19:57.412Z,62.88
2023-05-20T05:22:28.345Z,61.38
2023-05-20T05:24:56.016Z,62.09
2023-05-20T05:27:23.169Z,60.86
2023-05-20T05:29:50.099Z,60.93
2023-05-20T05:32:17.143Z,61.67
2023-05-20T05:34:43.930Z,60.39
2023-05-20T05:37:10.814Z,59.35
2023-05-20T05:39:37.864Z,59.52
2023-05-20T05:42:05.125Z,58.88
2023-05-20T05:44:34.518Z,60.26
2023-05-20T05:47:06.856Z,58.67
2023-05-20T05:49:34.341Z,62.20
2023-05-20T05:52:01.105Z,61.24
2023-05-20T05:54:28.630Z,61.82
2023-05-20T05:56:59.258Z,62.01
2023-05-20T05:59:28.410Z,62.17
2023-05-20T06:01:55.284Z,63.29
2023-05-20T06:04:25.214Z,63.52
2023-05-20T06:06:54.965Z,61.67
2023-05-20T06:09:27.866Z,61.29
2023-05-20T06:11:55.121Z,60.40
2023-05-20T06:14:24.823Z,60.95
2023-05-20T06:16:51.524Z,62.55
2023-05-20T06:19:21.223Z,62.35
2023-05-20T06:21:48.021Z,63.40
2023-05-20T06:24:17.896Z,62.86
2023-05-20T06:26:46.152Z,63.39
2023-05-20T06:29:12.791Z,62.33
2023-05-20T06:31:39.463Z,60.85
2023-05-20T06:34:06.418Z,60.64
2023-05-20T06:36:33.883Z,61.83
2023-05-20T06:39:00.699Z,61.03
2023-05-20T06:41:27.454Z,61.01
2023-05-20T06:43:54.144Z,60.80
2023-05-20T06:46:46.333Z,61.80
2023-05-20T06:49:15.440Z,61.34
2023-05-20T06:51:42.547Z,60.59
2023-05-20T06:54:09.209Z,60.42
2023-05-20T06:56:35.847Z,59.14
2023-05-20T06:59:03.032Z,58.70
2023-05-20T07:01:32.282Z,59.50
2023-05-20T07:03:59.135Z,58.45
2023-05-20T07:06:25.903Z,57.84
2023-05-20T07:08:55.781Z,58.77
2023-05-20T07:11:24.847Z,57.88
2023-05-20T07:13:51.466Z,58.02
2023-05-20T07:16:18.308Z,58.61
2023-05-20T07:18:50.604Z,59.15
2023-05-20T07:21:18.029Z,58.32
2023-05-20T07:23:58.643Z,58.57
2023-05-20T07:26:25.460Z,59.93
2023-05-20T07:28:52.331Z,59.27
2023-05-20T07:31:19.211Z,58.52
2023-05-20T07:33:46.002Z,58.21
2023-05-20T07:36:13.733Z,57.91
2023-05-20T07:38:49.968Z,57.87
2023-05-20T07:41:23.988Z,58.46
2023-05-20T07:43:50.866Z,57.12
2023-05-20T07:46:20.091Z,57.74
2023-05-20T07:48:50.290Z,57.73
2023-05-20T07:51:17.169Z,56.82
2023-05-20T07:53:43.743Z,58.99
2023-05-20T07:56:10.747Z,57.18
2023-05-20T07:58:38.105Z,55.63
2023-05-20T08:01:05.153Z,56.36
2023-05-20T08:03:31.875Z,56.05
2023-05-20T08:06:11.993Z,54.94
2023-05-20T08:08:43.499Z,55.61
2023-05-20T08:11:18.058Z,55.07
2023-05-20T08:13:44.900Z,55.17
2023-05-20T08:16:11.849Z,56.14
2023-05-20T08:18:38.959Z,56.07
2023-05-20T08:21:08.032Z,55.33
2023-05-20T08:23:38.054Z,55.75
2023-05-20T08:26:07.111Z,55.56
2023-05-20T08:28:37.949Z,56.23
2023-05-20T08:31:04.751Z,56.01
2023-05-20T08:33:43.978Z,55.79
2023-05-20T08:36:10.713Z,56.05
2023-05-20T08:38:37.409Z,56.74
2023-05-20T08:41:04.240Z,57.32
2023-05-20T08:43:32.727Z,56.36
2023-05-20T08:46:02.496Z,57.09
2023-05-20T08:48:30.684Z,55.34
2023-05-20T08:51:00.114Z,55.90
2023-05-20T08:53:26.842Z,56.09
2023-05-20T08:55:55.585Z,56.80
2023-05-20T08:58:23.433Z,55.21
2023-05-20T09:00:51.230Z,55.77
2023-05-20T09:03:18.631Z,55.81
2023-05-20T09:05:45.211Z,55.62
2023-05-20T09:08:12.159Z,55.75
2023-05-20T09:10:40.151Z,57.59
2023-05-20T09:13:07.460Z,57.38
2023-05-20T09:15:42.257Z,56.01
2023-05-20T09:18:09.345Z,56.48
2023-05-20T09:20:37.494Z,56.36
2023-05-20T09:23:06.436Z,57.85
2023-05-20T09:25:33.357Z,58.01
2023-05-20T09:28:00.331Z,56.74
2023-05-20T09:30:27.680Z,57.78
2023-05-20T09:32:55.329Z,57.38
2023-05-20T09:35:23.684Z,57.32
2023-05-20T09:37:55.040Z,56.23
2023-05-20T09:40:25.095Z,56.27
2023-05-20T09:42:56.811Z,56.16
2023-05-20T09:45:24.621Z,56.44
2023-05-20T09:47:52.680Z,55.68
2023-05-20T09:50:26.297Z,55.55
2023-05-20T09:52:53.452Z,55.31
2023-05-20T09:55:21.034Z,54.64
2023-05-20T09:57:47.711Z,55.83
2023-05-20T10:00:17.279Z,56.59
2023-05-20T10:02:45.144Z,56.49
2023-05-20T10:05:19.722Z,56.29
2023-05-20T10:07:52.568Z,55.98
2023-05-20T10:10:37.876Z,55.37
2023-05-20T10:13:07.293Z,55.37
2023-05-20T10:15:51.810Z,55.33
2023-05-20T10:18:47.700Z,55.05
2023-05-20T10:21:18.463Z,55.70
2023-05-20T10:23:45.124Z,56.57
2023-05-20T10:26:11.814Z,55.86
2023-05-20T10:28:40.361Z,55.08
2023-05-20T10:31:21.541Z,55.88
2023-05-20T10:33:48.694Z,56.04
2023-05-20T10:36:28.477Z,56.89
2023-05-20T10:38:59.219Z,57.21
2023-05-20T10:41:27.716Z,56.37
2023-05-20T10:44:06.786Z,57.37
2023-05-20T10:46:46.283Z,56.77
2023-05-20T10:49:27.117Z,56.19
2023-05-20T10:51:54.380Z,55.54
2023-05-20T10:54:23.798Z,56.57
2023-05-20T10:56:51.956Z,56.56
2023-05-20T10:59:18.607Z,56.37
2023-05-20T11:01:46.526Z,56.22
2023-05-20T11:04:17.438Z,57.24
2023-05-20T11:06:54.329Z,56.09
2023-05-20T11:09:24.552Z,56.16
2023-05-20T11:11:51.892Z,55.33
2023-05-20T11:14:21.739Z,55.29
2023-05-20T11:16:52.314Z,54.40
2023-05-20T11:19:21.961Z,55.11
2023-05-20T11:21:48.682Z,56.42
2023-05-20T11:24:22.313Z,55.83
2023-05-20T11:26:49.012Z,55.28
2023-05-20T11:29:19.968Z,54.82
2023-05-20T11:31:48.017Z,53.87
2023-05-20T11:34:14.710Z,55.19
2023-05-20T11:36:42.136Z,55.28
2023-05-20T11:39:10.115Z,56.02
2023-05-20T11:41:36.878Z,55.91
2023-05-20T11:44:03.475Z,54.44
2023-05-20T11:46:30.153Z,55.98
2023-05-20T11:48:57.346Z,55.93
2023-05-20T11:51:25.097Z,56.57
2023-05-20T11:53:51.649Z,56.72
2023-05-20T11:56:21.961Z,56.65
2023-05-20T11:58:48.973Z,55.72
2023-05-20T12:01:22.462Z,56.34
2023-05-20T12:03:50.323Z,56.11
2023-05-20T12:06:17.781Z,55.53
2023-05-20T12:08:47.700Z,55.28
2023-05-20T12:11:14.346Z,54.37
2023-05-20T12:13:41.140Z,54.39
2023-05-20T12:16:15.396Z,54.42
2023-05-20T12:18:47.451Z,52.62
2023-05-20T12:21:16.993Z,53.24
2023-05-20T12:23:44.793Z,53.12
2023-05-20T12:26:11.477Z,53.03
2023-05-20T12:28:38.066Z,55.01
2023-05-20T12:31:07.036Z,55.10
2023-05-20T12:33:33.678Z,54.86
2023-05-20T12:36:00.572Z,54.96
2023-05-20T12:38:27.259Z,54.09
2023-05-20T12:40:56.127Z,53.18
2023-05-20T12:43:25.880Z,51.17
2023-05-20T12:45:52.459Z,51.74
2023-05-20T12:48:19.234Z,52.99
2023-05-20T12:50:48.606Z,53.84
2023-05-20T12:53:15.333Z,52.26
2023-05-20T12:55:41.906Z,51.99
2023-05-20T12:58:09.014Z,51.90
2023-05-20T13:00:36.257Z,52.56
2023-05-20T13:03:03.172Z,52.47
2023-05-20T13:05:30.051Z,51.36
2023-05-20T13:07:56.704Z,49.74
2023-05-20T13:10:23.478Z,50.29
2023-05-20T13:12:50.179Z,50.44
2023-05-20T13:15:16.882Z,52.26
2023-05-20T13:17:43.715Z,53.08
2023-05-20T13:20:11.083Z,54.31
2023-05-20T13:22:38.159Z,51.34
2023-05-20T13:25:05.432Z,49.19
2023-05-20T13:27:32.138Z,47.19
2023-05-20T13:29:58.768Z,45.38
2023-05-20T13:32:25.501Z,46.18
2023-05-20T13:34:52.090Z,45.60
2023-05-20T13:37:19.356Z,46.96
2023-05-20T13:39:45.902Z,46.43
2023-05-20T13:42:12.724Z,46.36
2023-05-20T13:44:39.383Z,48.31
2023-05-20T13:47:06.095Z,49.25
2023-05-20T13:49:32.699Z,49.29
2023-05-20T13:52:01.553Z,48.70
2023-05-20T13:54:28.118Z,48.01
2023-05-20T13:56:54.975Z,47.05
2023-05-20T13:59:21.537Z,47.02
2023-05-20T14:01:48.321Z,49.31
2023-05-20T14:04:14.949Z,49.56
2023-05-20T14:06:42.389Z,52.44
2023-05-20T14:09:09.366Z,51.38
2023-05-20T14:11:36.309Z,49.59
2023-05-20T14:14:02.912Z,49.01
2023-05-20T14:16:29.618Z,47.71
2023-05-20T14:18:56.212Z,47.42
2023-05-20T14:21:22.848Z,44.39
2023-05-20T14:23:49.624Z,45.22
2023-05-20T14:26:16.294Z,45.39
2023-05-20T14:28:42.944Z,47.26
2023-05-20T14:31:10.800Z,45.96
2023-05-20T14:33:37.453Z,46.38
2023-05-20T14:36:06.657Z,47.49
2023-05-20T14:38:33.224Z,47.17
2023-05-20T14:40:59.881Z,47.11
2023-05-20T14:43:26.490Z,48.89
2023-05-20T14:45:53.170Z,48.47
2023-05-20T14:48:22.848Z,48.37
2023-05-20T14:50:49.939Z,47.95
2023-05-20T14:53:17.020Z,47.76
2023-05-20T14:55:43.660Z,46.60
2023-05-20T14:58:10.515Z,47.18
2023-05-20T15:00:39.593Z,46.49
2023-05-20T15:03:06.645Z,46.60
2023-05-20T15:05:33.618Z,46.91
2023-05-20T15:08:00.285Z,47.04
2023-05-20T15:10:27.029Z,47.90
2023-05-20T15:12:53.697Z,49.20
2023-05-20T15:15:21.242Z,48.81
2023-05-20T15:17:47.899Z,48.60
2023-05-20T15:20:14.605Z,49.34
2023-05-20T15:22:41.780Z,47.54
2023-05-20T15:25:09.531Z,47.47
2023-05-20T15:27:36.213Z,47.29
2023-05-20T15:30:03.017Z,49.19
2023-05-20T15:32:29.736Z,48.89
2023-05-20T15:34:59.818Z,48.61
2023-05-20T15:37:26.604Z,49.06
2023-05-20T15:39:55.536Z,49.21
2023-05-20T15:42:22.214Z,49.04
2023-05-20T15:44:52.031Z,47.71
2023-05-20T15:47:18.776Z,47.97
2023-05-20T15:49:47.633Z,47.01
2023-05-20T15:52:14.328Z,47.15
2023-05-20T15:54:41.129Z,46.79
2023-05-20T15:57:07.770Z,46.33
2023-05-20T15:59:34.359Z,46.03
2023-05-20T16:02:01.042Z,46.05
2023-05-20T16:04:33.114Z,47.56
2023-05-20T16:06:59.948Z,47.56
2023-05-20T16:09:32.567Z,47.45
2023-05-20T16:11:59.196Z,49.82
2023-05-20T16:14:28.805Z,49.80
2023-05-20T16:16:55.513Z,50.04
2023-05-20T16:19:22.177Z,49.53
2023-05-20T16:21:51.249Z,49.16
2023-05-20T16:24:17.825Z,49.26
2023-05-20T16:26:44.564Z,48.31
2023-05-20T16:29:11.353Z,48.66
2023-05-20T16:31:38.091Z,50.37
2023-05-20T16:34:04.797Z,51.21
2023-05-20T16:36:31.852Z,50.72
2023-05-20T16:38:58.463Z,49.83
2023-05-20T16:41:25.173Z,50.28
2023-05-20T16:43:51.774Z,50.40
2023-05-20T16:46:20.923Z,48.50
2023-05-20T16:48:50.775Z,48.25
2023-05-20T16:51:17.427Z,47.25
2023-05-20T16:53:46.764Z,47.67
2023-05-20T16:56:15.952Z,48.85
2023-05-20T16:58:42.650Z,49.45
2023-05-20T17:01:09.332Z,50.94
2023-05-20T17:03:36.373Z,51.78
2023-05-20T17:06:02.934Z,49.97
2023-05-20T17:08:32.410Z,51.86
2023-05-20T17:10:59.600Z,51.88
2023-05-20T17:13:26.244Z,51.07
2023-05-20T17:15:52.917Z,50.73
2023-05-20T17:18:19.643Z,51.50
2023-05-20T17:20:46.464Z,52.09
2023-05-20T17:23:14.865Z,52.05
2023-05-20T17:25:41.450Z,52.74
2023-05-20T17:28:08.121Z,53.48
2023-05-20T17:30:34.972Z,54.12
2023-05-20T17:33:04.274Z,53.35
2023-05-20T17:35:33.973Z,53.22
2023-05-20T17:38:00.815Z,53.38
2023-05-20T17:40:27.401Z,53.38
2023-05-20T17:42:54.079Z,54.15
2023-05-20T17:45:20.760Z,54.49
2023-05-20T17:47:47.492Z,54.97
2023-05-20T17:50:15.383Z,55.45
2023-05-20T17:52:42.110Z,56.57
2023-05-20T17:55:09.703Z,56.32
2023-05-20T17:57:36.689Z,56.65
2023-05-20T18:00:03.973Z,55.80
2023-05-20T18:02:31.921Z,55.63
2023-05-20T18:04:58.690Z,55.65
2023-05-20T18:07:27.024Z,56.23
2023-05-20T18:09:53.692Z,57.16
2023-05-20T18:12:20.519Z,57.31
2023-05-20T18:14:47.116Z,57.50
2023-05-20T18:17:13.830Z,57.30
2023-05-20T18:19:43.433Z,57.61
2023-05-20T18:22:10.211Z,57.50
2023-05-20T18:24:39.848Z,57.74
2023-05-20T18:27:06.567Z,56.87
2023-05-20T18:29:33.140Z,57.30
2023-05-20T18:32:01.402Z,57.61
2023-05-20T18:34:37.019Z,57.86
2023-05-20T18:37:03.993Z,57.64
2023-05-20T18:39:37.730Z,57.79
2023-05-20T18:42:59.043Z,58.65
2023-05-20T18:45:26.004Z,59.81
2023-05-20T18:47:55.332Z,58.80
2023-05-20T18:50:22.040Z,58.69
2023-05-20T18:52:48.820Z,57.99
2023-05-20T18:55:15.578Z,58.83
2023-05-20T18:57:42.278Z,58.77
2023-05-20T19:00:12.300Z,59.36
2023-05-20T19:02:40.268Z,58.96
2023-05-20T19:05:09.162Z,59.62
2023-05-20T19:07:45.958Z,59.56
2023-05-20T19:10:15.509Z,59.52
2023-05-20T19:12:43.597Z,59.50
2023-05-20T19:15:10.561Z,58.16
2023-05-20T19:17:39.477Z,59.66
2023-05-20T19:20:07.431Z,60.96
2023-05-20T19:22:34.396Z,60.35
2023-05-20T19:25:01.100Z,60.92
2023-05-20T19:27:27.753Z,60.38
2023-05-20T19:29:54.420Z,60.78
2023-05-20T19:32:21.049Z,60.99
2023-05-20T19:34:49.902Z,61.41
2023-05-20T19:37:16.953Z,60.59
2023-05-20T19:39:43.678Z,61.00
2023-05-20T19:42:10.367Z,61.57
2023-05-20T19:44:37.098Z,61.57
2023-05-20T19:47:05.662Z,60.63
2023-05-20T19:49:33.088Z,60.92
2023-05-20T19:51:59.708Z,61.52
2023-05-20T19:54:26.911Z,60.96
2023-05-20T19:56:53.525Z,61.44
2023-05-20T19:59:20.272Z,61.46
2023-05-20T20:01:48.050Z,61.13
2023-05-20T20:04:17.200Z,62.34
2023-05-20T20:06:44.040Z,62.34
2023-05-20T20:09:10.741Z,62.01
2023-05-20T20:11:37.419Z,62.15
2023-05-20T20:14:04.135Z,62.39
2023-05-20T20:16:30.909Z,61.23
2023-05-20T20:18:57.646Z,60.74
2023-05-20T20:21:25.791Z,60.93
2023-05-20T20:23:53.127Z,61.70
2023-05-20T20:26:22.698Z,62.51
2023-05-20T20:28:49.298Z,61.97
2023-05-20T20:31:15.995Z,61.74
2023-05-20T20:33:42.670Z,62.12
2023-05-20T20:36:09.871Z,61.77
2023-05-20T20:38:37.615Z,62.71
2023-05-20T20:41:04.214Z,62.49
2023-05-20T20:43:30.924Z,63.05
2023-05-20T20:46:00.075Z,62.63
2023-05-20T20:48:27.993Z,62.93
2023-05-20T20:50:54.866Z,63.14
2023-05-20T20:53:21.804Z,63.27
2023-05-20T20:55:48.473Z,63.42
2023-05-20T20:58:16.050Z,63.79
2023-05-20T21:00:45.399Z,64.08
2023-05-20T21:03:12.818Z,64.46
2023-05-20T21:05:39.709Z,64.22
2023-05-20T21:08:08.362Z,65.19
2023-05-20T21:10:38.743Z,64.23
2023-05-20T21:13:05.511Z,64.58
2023-05-20T21:15:32.098Z,64.36
2023-05-20T21:17:58.941Z,64.48
2023-05-20T21:20:25.612Z,65.35
2023-05-20T21:22:52.362Z,65.23
2023-05-20T21:25:18.962Z,65.14
2023-05-20T21:27:46.066Z,65.96
2023-05-20T21:30:12.699Z,65.47
2023-05-20T21:32:39.457Z,66.13
2023-05-20T21:35:06.416Z,64.72
2023-05-20T21:37:33.176Z,64.38
2023-05-20T21:39:59.742Z,64.83
2023-05-20T21:42:26.460Z,64.31
2023-05-20T21:44:53.047Z,64.23
2023-05-20T21:47:20.755Z,63.85
2023-05-20T21:49:48.300Z,64.22
2023-05-20T21:52:15.812Z,65.57
2023-05-20T21:54:44.777Z,64.47
2023-05-20T21:57:11.405Z,65.91
2023-05-20T21:59:40.527Z,67.30
2023-05-20T22:02:07.253Z,66.51
2023-05-20T22:04:33.905Z,66.27
2023-05-20T22:07:00.851Z,66.11
2023-05-20T22:09:27.429Z,65.63
2023-05-20T22:11:54.542Z,65.14
2023-05-20T22:14:21.126Z,65.25
2023-05-20T22:16:48.573Z,64.62
2023-05-20T22:19:15.873Z,64.90
2023-05-20T22:24:14.848Z,65.43
2023-05-20T22:26:41.746Z,65.75
2023-05-20T22:29:08.416Z,66.48
2023-05-20T22:31:35.091Z,67.39
2023-05-20T22:34:02.280Z,67.54
2023-05-20T22:36:34.129Z,68.16
2023-05-20T22:39:02.238Z,66.97
2023-05-20T22:41:29.132Z,66.96
2023-05-20T22:43:56.874Z,67.80
2023-05-20T22:46:24.238Z,67.93
2023-05-20T22:48:54.572Z,68.91
2023-05-20T22:51:21.958Z,69.09
2023-05-20T22:53:51.998Z,67.73
2023-05-20T22:56:19.169Z,69.86
2023-05-20T22:58:45.915Z,69.53
2023-05-20T23:01:12.926Z,71.61
2023-05-20T23:03:44.233Z,71.20
2023-05-20T23:06:11.646Z,69.73
2023-05-20T23:08:38.252Z,69.53
2023-05-20T23:11:04.991Z,69.23
2023-05-20T23:13:39.737Z,67.98
2023-05-20T23:16:07.723Z,70.29
2023-05-20T23:18:34.305Z,71.37
2023-05-20T23:21:01.049Z,71.29
2023-05-20T23:23:32.015Z,70.32
2023-05-20T23:25:59.501Z,69.62
2023-05-20T23:28:26.313Z,69.84
2023-05-20T23:30:53.048Z,71.00
2023-05-20T23:33:24.765Z,71.95
2023-05-20T23:35:52.337Z,72.96
2023-05-20T23:38:26.247Z,73.16
2023-05-20T23:40:52.864Z,73.65
2023-05-20T23:43:19.495Z,74.76
2023-05-20T23:45:46.741Z,72.96
2023-05-20T23:48:13.681Z,72.27
2023-05-20T23:50:43.473Z,72.22
2023-05-20T23:53:17.390Z,72.14
2023-05-20T23:55:45.213Z,71.38
2023-05-20T23:58:11.948Z,70.16
